Time;durP1;ratioP1;P1;durP2;ratioP2;P2;SDS_P1;SDS_P2;PMS_P1;PMS_P2;Temp;Humidity;BMP_temperature;BMP_pressure;BME280_temperature;BME280_humidity;BME280_pressure;Samples;Min_cycle;Max_cycle;Signal;HPM_P1;HPM_P2
2021/05/07 00:02:12;;;;;;;5.93;2.17;;;;;;;6.78;88.01;94678.09;5043318;28;20060;-70
2021/05/07 00:04:37;;;;;;;5.70;1.60;;;;;;;6.83;86.46;94665.03;5038878;28;20058;-71
2021/05/07 00:07:03;;;;;;;4.88;1.77;;;;;;;6.79;86.76;94669.97;5040755;28;20123;-71
2021/05/07 00:09:28;;;;;;;2.83;1.30;;;;;;;6.86;85.33;94669.72;5044265;28;20049;-71
2021/05/07 00:11:54;;;;;;;1.20;1.00;;;;;;;6.81;84.81;94656.63;5052948;28;20079;-71
2021/05/07 00:14:20;;;;;;;1.33;0.98;;;;;;;6.83;83.58;94665.03;5049961;28;20045;-71
2021/05/07 00:16:45;;;;;;;2.10;1.20;;;;;;;6.79;83.66;94656.91;5050515;28;20033;-70
2021/05/07 00:19:11;;;;;;;1.75;1.08;;;;;;;6.66;85.50;94658.25;5036034;28;20037;-70
2021/05/07 00:21:38;;;;;;;2.33;1.00;;;;;;;6.59;86.30;94647.28;5030820;28;20041;-70
2021/05/07 00:24:04;;;;;;;3.45;1.15;;;;;;;6.53;86.04;94661.41;5031293;28;20072;-71
2021/05/07 00:26:29;;;;;;;1.48;1.17;;;;;;;6.52;85.74;94665.06;5032760;28;20053;-70
2021/05/07 00:28:55;;;;;;;6.32;1.20;;;;;;;6.51;85.92;94673.97;5035857;28;20037;-70
2021/05/07 00:31:21;;;;;;;1.20;1.10;;;;;;;6.37;86.29;94669.25;5055208;28;20045;-71
2021/05/07 00:33:46;;;;;;;3.72;1.30;;;;;;;6.30;87.77;94657.53;5045548;28;20037;-70
2021/05/07 00:36:12;;;;;;;3.03;1.10;;;;;;;6.30;88.05;94663.53;5046015;28;20513;-71
2021/05/07 00:38:37;;;;;;;2.20;1.30;;;;;;;6.35;87.28;94665.34;5041918;28;20044;-70
2021/05/07 00:41:03;;;;;;;3.40;1.30;;;;;;;6.36;88.35;94662.47;5048112;28;20045;-70
2021/05/07 00:43:29;;;;;;;3.40;1.40;;;;;;;6.30;87.55;94658.31;5061748;28;20040;-70
2021/05/07 00:45:54;;;;;;;4.13;1.20;;;;;;;6.22;88.56;94662.22;5052127;28;20551;-70
2021/05/07 00:48:20;;;;;;;2.03;1.40;;;;;;;6.16;89.36;94657.25;5043965;28;20041;-70
2021/05/07 00:50:47;;;;;;;2.53;1.20;;;;;;;6.22;90.06;94667.47;5047879;28;20041;-70
2021/05/07 00:53:15;;;;;;;1.25;1.10;;;;;;;6.17;89.69;94658.84;5054444;28;20116;-70
2021/05/07 00:55:41;;;;;;;1.67;1.30;;;;;;;6.23;88.70;94657.78;5044037;28;20045;-70
2021/05/07 00:58:06;;;;;;;1.70;1.00;;;;;;;6.25;89.37;94660.94;5052557;28;20521;-70
2021/05/07 01:00:32;;;;;;;3.95;1.30;;;;;;;6.27;88.98;94658.81;5045276;28;20111;-71
2021/05/07 01:03:00;;;;;;;2.35;1.10;;;;;;;6.31;88.77;94649.41;5046099;28;20049;-70
2021/05/07 01:05:26;;;;;;;2.25;1.15;;;;;;;6.38;88.32;94649.16;5036517;28;20038;-70
2021/05/07 01:07:52;;;;;;;1.17;1.08;;;;;;;6.31;88.89;94649.41;5048197;28;20121;-70
2021/05/07 01:10:20;;;;;;;4.60;1.45;;;;;;;6.34;89.17;94648.13;5036809;28;20128;-70
2021/05/07 01:12:46;;;;;;;1.05;1.00;;;;;;;6.36;88.88;94641.56;5051643;28;20514;-71
2021/05/07 01:15:23;;;;;;;1.33;1.02;;;;;;;6.44;88.14;94642.06;5037971;28;20041;-71
2021/05/07 01:17:51;;;;;;;2.75;1.08;;;;;;;6.50;87.05;94651.50;5053359;28;20123;-70
2021/05/07 01:20:21;;;;;;;1.65;1.15;;;;;;;6.51;87.58;94647.84;5052041;28;20048;-70
2021/05/07 01:22:50;;;;;;;1.52;1.20;;;;;;;6.53;87.60;94651.72;5071126;28;20044;-70
2021/05/07 01:25:18;;;;;;;4.00;1.10;;;;;;;6.52;87.17;94649.38;5043991;28;20414;-70
2021/05/07 01:27:45;;;;;;;1.85;1.08;;;;;;;6.54;87.84;94652.53;5037807;28;20112;-70
2021/05/07 01:30:28;;;;;;;2.75;0.77;;;;;;;6.52;87.79;94654.63;5050694;28;20452;-70
2021/05/07 01:32:55;;;;;;;1.20;0.90;;;;;;;6.44;88.74;94652.53;5046776;28;20477;-70
2021/05/07 01:35:24;;;;;;;4.38;1.20;;;;;;;6.47;87.60;94646.78;5034184;28;20048;-70
2021/05/07 01:37:52;;;;;;;1.35;0.98;;;;;;;6.51;87.71;94658.28;5045243;28;20084;-70
2021/05/07 01:40:29;;;;;;;2.33;1.30;;;;;;;6.55;88.26;94659.31;5053245;28;20044;-71
2021/05/07 01:42:56;;;;;;;4.10;1.55;;;;;;;6.55;88.02;94664.53;5053608;28;20045;-71
2021/05/07 01:45:23;;;;;;;3.38;1.55;;;;;;;6.68;86.14;94669.25;5050671;28;20037;-71
2021/05/07 01:47:50;;;;;;;3.20;1.20;;;;;;;6.60;87.39;94667.16;5045589;28;20056;-71
2021/05/07 01:50:26;;;;;;;1.52;1.10;;;;;;;6.62;87.03;94665.03;5053206;28;20041;-71
2021/05/07 01:52:54;;;;;;;3.78;1.30;;;;;;;6.54;88.50;94665.59;5064453;28;20070;-72
2021/05/07 01:55:23;;;;;;;3.58;1.15;;;;;;;6.60;86.52;94651.47;5053997;28;20040;-70
2021/05/07 01:57:48;;;;;;;2.58;1.30;;;;;;;6.61;87.40;94653.03;5045791;28;20037;-71
2021/05/07 02:00:17;;;;;;;2.00;1.30;;;;;;;6.63;86.71;94656.16;5051132;28;20045;-71
2021/05/07 02:02:43;;;;;;;3.25;1.52;;;;;;;6.61;87.21;94653.03;5040937;28;20474;-71
2021/05/07 02:05:10;;;;;;;2.72;1.10;;;;;;;6.63;86.19;94681.53;5044010;28;20045;-71
2021/05/07 02:07:36;;;;;;;3.47;1.30;;;;;;;6.62;86.01;94674.72;5044804;28;20041;-71
2021/05/07 02:10:09;;;;;;;2.47;1.55;;;;;;;6.55;87.67;94669.75;5035756;28;20095;-70
2021/05/07 02:12:34;;;;;;;1.80;1.23;;;;;;;6.56;86.93;94676.56;5045761;28;20108;-71
2021/05/07 02:15:00;;;;;;;3.42;1.10;;;;;;;6.55;86.22;94680.22;5071792;28;20056;-71
2021/05/07 02:17:26;;;;;;;2.70;1.05;;;;;;;6.53;86.67;94687.56;5052276;28;20036;-71
2021/05/07 02:19:52;;;;;;;2.80;1.42;;;;;;;6.47;87.98;94678.16;5039161;28;20095;-71
2021/05/07 02:22:17;;;;;;;1.95;1.33;;;;;;;6.41;87.07;94680.78;5051368;28;20037;-71
2021/05/07 02:24:43;;;;;;;3.38;1.63;;;;;;;6.41;87.44;94662.47;5045670;28;20052;-71
2021/05/07 02:27:08;;;;;;;2.00;1.25;;;;;;;6.44;87.42;94678.66;5052301;28;20135;-71
2021/05/07 02:29:34;;;;;;;1.90;1.30;;;;;;;6.48;86.82;94698.81;5041241;28;20487;-70
2021/05/07 02:32:00;;;;;;;4.65;1.65;;;;;;;6.50;86.65;94673.19;5051550;28;20045;-71
2021/05/07 02:34:25;;;;;;;1.85;1.20;;;;;;;6.49;87.21;94665.59;5042168;28;20045;-70
2021/05/07 02:36:51;;;;;;;2.58;1.23;;;;;;;6.49;86.86;94665.59;5032389;28;20048;-70
2021/05/07 02:39:16;;;;;;;7.07;1.23;;;;;;;6.52;87.56;94675.53;5032601;28;20045;-70
2021/05/07 02:41:43;;;;;;;4.07;1.38;;;;;;;6.46;87.89;94672.13;5037782;28;20046;-70
2021/05/07 02:44:09;;;;;;;5.43;1.48;;;;;;;6.50;87.11;94677.63;5044826;28;20052;-70
2021/05/07 02:46:36;;;;;;;3.83;1.65;;;;;;;6.44;87.51;94678.66;5039971;28;20041;-70
2021/05/07 02:49:06;;;;;;;4.53;1.35;;;;;;;6.47;86.28;94667.72;5048168;28;20060;-70
2021/05/07 02:51:33;;;;;;;2.60;1.35;;;;;;;6.38;87.21;94659.63;5043561;28;20113;-70
2021/05/07 02:54:00;;;;;;;2.85;1.30;;;;;;;6.37;87.07;94674.50;5041105;28;20037;-70
2021/05/07 02:56:26;;;;;;;2.47;1.40;;;;;;;6.30;87.24;94663.53;5034023;28;20049;-70
2021/05/07 02:58:52;;;;;;;1.55;1.20;;;;;;;6.22;86.68;94671.88;5032213;28;20502;-70
2021/05/07 03:01:18;;;;;;;3.88;1.20;;;;;;;6.15;86.60;94682.63;5037563;28;20045;-70
2021/05/07 03:03:43;;;;;;;3.30;1.10;;;;;;;6.11;87.00;94686.00;5048371;28;20465;-70
2021/05/07 03:06:09;;;;;;;2.42;1.00;;;;;;;6.04;88.04;94676.59;5057177;28;20099;-71
2021/05/07 03:08:35;;;;;;;1.80;1.08;;;;;;;6.05;87.34;94683.38;5050223;28;20155;-71
2021/05/07 03:11:01;;;;;;;2.53;1.25;;;;;;;5.94;87.43;94676.56;5040399;28;20434;-71
2021/05/07 03:13:26;;;;;;;3.92;1.40;;;;;;;5.92;87.79;94667.41;5047506;28;20048;-71
2021/05/07 03:15:52;;;;;;;2.00;1.27;;;;;;;5.92;87.38;94673.44;5050281;28;20060;-71
2021/05/07 03:18:19;;;;;;;2.47;1.13;;;;;;;5.97;86.61;94670.03;5040156;28;20555;-71
2021/05/07 03:20:45;;;;;;;2.85;1.20;;;;;;;5.94;87.47;94673.16;5032002;28;20042;-70
2021/05/07 03:23:11;;;;;;;3.60;1.17;;;;;;;5.86;87.57;94682.28;5046994;28;20037;-71
2021/05/07 03:25:37;;;;;;;3.05;1.52;;;;;;;5.92;87.92;94683.88;5046273;28;20048;-71
2021/05/07 03:28:05;;;;;;;3.50;1.40;;;;;;;6.11;87.29;94686.78;5051487;28;20040;-71
2021/05/07 03:30:32;;;;;;;1.70;1.27;;;;;;;6.13;86.88;94683.91;5049089;28;20802;-70
2021/05/07 03:32:58;;;;;;;3.17;1.23;;;;;;;6.13;87.05;94689.13;5044289;28;20049;-70
2021/05/07 03:35:24;;;;;;;2.03;1.30;;;;;;;6.15;87.29;94692.25;5049727;28;20041;-71
2021/05/07 03:37:50;;;;;;;1.67;1.10;;;;;;;6.23;86.08;94699.59;5046384;28;20573;-71
2021/05/07 03:40:15;;;;;;;2.47;1.13;;;;;;;6.25;87.35;94692.28;5031748;28;20060;-71
2021/05/07 03:42:41;;;;;;;3.25;1.30;;;;;;;6.22;86.55;94703.22;5036510;28;20049;-70
2021/05/07 03:45:07;;;;;;;4.15;1.60;;;;;;;6.25;86.57;94713.19;5045068;28;20049;-70
2021/05/07 03:47:33;;;;;;;3.17;1.23;;;;;;;6.23;87.25;94715.25;5046427;28;20529;-70
2021/05/07 03:49:58;;;;;;;2.30;1.40;;;;;;;6.15;88.56;94718.38;5051022;28;20045;-70
2021/05/07 03:52:24;;;;;;;2.90;1.38;;;;;;;6.20;87.17;94716.56;5042532;28;20037;-70
2021/05/07 03:54:49;;;;;;;3.78;1.42;;;;;;;6.14;87.61;94715.00;5048894;28;20044;-70
2021/05/07 03:57:15;;;;;;;3.53;1.75;;;;;;;6.18;87.78;94712.66;5049091;28;20095;-70
2021/05/07 03:59:41;;;;;;;3.63;1.40;;;;;;;6.09;87.82;94719.44;5050680;28;20048;-70
2021/05/07 04:02:06;;;;;;;4.75;1.65;;;;;;;6.12;89.02;94729.34;5046812;28;20545;-70
2021/05/07 04:04:34;;;;;;;3.05;1.70;;;;;;;6.15;87.54;94724.41;5045668;28;20042;-70
2021/05/07 04:06:59;;;;;;;6.97;1.85;;;;;;;6.10;88.94;94732.22;5042131;28;20045;-70
2021/05/07 04:09:35;;;;;;;2.70;1.50;;;;;;;6.10;88.50;94731.47;5049517;28;20445;-70
2021/05/07 04:12:13;;;;;;;5.53;1.60;;;;;;;6.10;88.00;94731.47;5047764;28;20064;-70
2021/05/07 04:14:38;;;;;;;8.35;1.73;;;;;;;6.04;88.90;94725.44;5045622;28;20119;-70
2021/05/07 04:17:04;;;;;;;8.60;1.83;;;;;;;6.03;89.04;94735.13;5054194;28;20497;-70
2021/05/07 04:19:30;;;;;;;7.25;1.40;;;;;;;6.01;86.25;94724.13;5071139;28;20044;-70
2021/05/07 04:21:56;;;;;;;4.15;1.70;;;;;;;5.95;88.13;94730.38;5070687;28;20105;-70
2021/05/07 04:24:22;;;;;;;4.18;1.60;;;;;;;5.90;88.90;94733.75;5039472;28;20408;-70
2021/05/07 04:26:48;;;;;;;3.30;1.50;;;;;;;5.86;88.54;94729.28;5032413;28;20049;-70
2021/05/07 04:29:14;;;;;;;2.90;1.38;;;;;;;5.89;88.14;94747.84;5054010;28;20049;-70
2021/05/07 04:31:39;;;;;;;2.83;1.33;;;;;;;5.86;89.08;94737.13;5030687;28;20034;-71
2021/05/07 04:34:06;;;;;;;3.50;1.30;;;;;;;5.78;89.08;94740.25;5039282;28;20067;-70
2021/05/07 04:36:33;;;;;;;3.63;1.50;;;;;;;5.80;89.04;94744.16;5049841;28;20036;-71
2021/05/07 04:38:58;;;;;;;5.70;1.60;;;;;;;5.82;89.61;94741.28;5047844;28;20037;-70
2021/05/07 04:41:24;;;;;;;5.45;1.60;;;;;;;5.81;89.62;94734.50;5030869;28;20393;-70
2021/05/07 04:43:50;;;;;;;2.83;1.50;;;;;;;5.77;89.24;94736.06;5036167;28;20383;-70
2021/05/07 04:46:16;;;;;;;6.88;1.75;;;;;;;5.78;89.70;94724.59;5030533;28;20518;-70
2021/05/07 04:48:41;;;;;;;7.15;1.70;;;;;;;5.80;89.52;94725.09;5055100;28;20139;-71
2021/05/07 04:51:07;;;;;;;3.42;1.65;;;;;;;5.84;89.36;94747.81;5069275;28;20040;-71
2021/05/07 04:53:32;;;;;;;4.10;1.65;;;;;;;5.84;89.70;94749.66;5061485;28;20043;-71
2021/05/07 04:55:58;;;;;;;6.50;1.83;;;;;;;5.78;90.13;94750.69;5038328;28;20049;-71
2021/05/07 04:58:23;;;;;;;5.32;1.60;;;;;;;5.79;90.07;94779.16;5050103;28;20052;-71
2021/05/07 05:00:49;;;;;;;4.68;1.60;;;;;;;5.76;89.42;94778.88;5046183;28;20499;-71
2021/05/07 05:03:15;;;;;;;5.60;1.75;;;;;;;5.76;90.04;94779.69;5043109;28;20041;-70
2021/05/07 05:05:40;;;;;;;6.22;1.88;;;;;;;5.73;90.89;94786.19;5034870;28;20037;-70
2021/05/07 05:08:06;;;;;;;4.03;1.80;;;;;;;5.68;91.19;94780.94;5036182;28;20384;-71
2021/05/07 05:10:32;;;;;;;1.95;1.42;;;;;;;5.63;89.80;94786.16;5050389;28;20053;-71
2021/05/07 05:12:57;;;;;;;3.78;1.60;;;;;;;5.63;90.13;94801.81;5047250;28;20518;-70
2021/05/07 05:15:23;;;;;;;7.07;2.22;;;;;;;5.55;91.42;94789.25;5031647;28;20064;-70
2021/05/07 05:17:52;;;;;;;4.97;1.70;;;;;;;5.48;92.31;94794.69;5040920;28;20407;-70
2021/05/07 05:20:18;;;;;;;7.50;1.90;;;;;;;5.52;91.65;94794.97;5046159;28;20056;-70
2021/05/07 05:22:43;;;;;;;5.65;1.80;;;;;;;5.52;91.06;94810.63;5048616;28;20528;-70
2021/05/07 05:25:09;;;;;;;4.55;1.83;;;;;;;5.39;92.36;94822.31;5034442;28;20434;-70
2021/05/07 05:27:36;;;;;;;3.08;1.52;;;;;;;5.42;91.93;94829.63;5040203;28;20510;-70
2021/05/07 05:30:04;;;;;;;2.83;1.33;;;;;;;5.44;90.24;94834.59;5050924;28;20056;-70
2021/05/07 05:32:29;;;;;;;2.42;1.40;;;;;;;5.35;91.68;94829.06;5042701;28;20049;-70
2021/05/07 05:34:56;;;;;;;2.78;1.50;;;;;;;5.26;92.69;94834.00;5034357;28;20494;-70
2021/05/07 05:37:22;;;;;;;2.15;1.35;;;;;;;5.28;91.93;94842.34;5052163;28;20078;-70
2021/05/07 05:39:48;;;;;;;1.85;1.40;;;;;;;5.28;91.55;94847.56;5049619;28;20499;-70
2021/05/07 05:42:13;;;;;;;5.65;1.58;;;;;;;5.23;92.55;94850.16;5032316;28;20056;-70
2021/05/07 05:44:39;;;;;;;6.68;1.35;;;;;;;5.28;92.65;94858.00;5034178;28;20479;-70
2021/05/07 05:47:05;;;;;;;4.57;1.48;;;;;;;5.27;92.59;94856.44;5049204;28;20396;-71
2021/05/07 05:49:30;;;;;;;6.13;1.70;;;;;;;5.32;92.54;94873.94;5053885;28;20052;-70
2021/05/07 05:51:56;;;;;;;5.85;1.77;;;;;;;5.26;92.80;94870.50;5053327;28;20434;-70
2021/05/07 05:54:22;;;;;;;3.60;1.80;;;;;;;5.28;93.42;94868.41;5042131;28;20038;-71
2021/05/07 05:56:48;;;;;;;10.23;2.25;;;;;;;5.23;94.08;94865.78;5041100;28;20033;-71
2021/05/07 05:59:13;;;;;;;4.63;2.20;;;;;;;5.21;94.32;94873.06;5063142;28;20098;-71
2021/05/07 06:01:39;;;;;;;6.88;1.60;;;;;;;5.18;94.46;94879.56;5072792;28;20040;-71
2021/05/07 06:04:05;;;;;;;5.70;1.42;;;;;;;5.22;93.79;94874.66;5040207;28;20037;-71
2021/05/07 06:06:30;;;;;;;6.53;1.60;;;;;;;5.28;93.61;94884.06;5039087;28;20037;-71
2021/05/07 06:08:56;;;;;;;2.15;1.35;;;;;;;5.25;93.44;94889.78;5053869;28;20072;-70
2021/05/07 06:11:21;;;;;;;1.38;1.08;;;;;;;5.30;93.03;94886.44;5066903;28;20093;-71
2021/05/07 06:13:47;;;;;;;3.90;1.70;;;;;;;5.36;92.47;94890.66;5058568;28;20106;-71
2021/05/07 06:16:12;;;;;;;1.92;1.10;;;;;;;5.41;92.61;94892.53;5042215;28;21731;-71
2021/05/07 06:18:38;;;;;;;2.80;1.20;;;;;;;5.53;93.00;94864.38;5048772;28;20048;-70
2021/05/07 06:21:04;;;;;;;1.85;1.02;;;;;;;5.56;90.85;94856.06;5045674;28;20055;-71
2021/05/07 06:23:30;;;;;;;2.47;1.20;;;;;;;5.57;92.22;94849.81;5035926;28;20499;-71
2021/05/07 06:25:56;;;;;;;0.88;0.88;;;;;;;5.47;92.24;94849.75;5040970;28;20083;-71
2021/05/07 06:28:21;;;;;;;2.75;1.13;;;;;;;5.38;92.76;94850.22;5044945;28;20033;-71
2021/05/07 06:30:47;;;;;;;1.25;1.15;;;;;;;5.61;92.75;94855.31;5036476;28;20045;-71
2021/05/07 06:33:12;;;;;;;1.80;0.95;;;;;;;5.86;91.69;94862.47;5048293;28;20046;-71
2021/05/07 06:35:38;;;;;;;1.58;1.00;;;;;;;5.97;91.88;94851.03;5038312;28;20044;-71
2021/05/07 06:38:08;;;;;;;1.25;0.73;;;;;;;5.94;90.14;94848.91;5040053;28;20120;-70
2021/05/07 06:40:34;;;;;;;1.27;1.05;;;;;;;6.04;90.95;94848.97;5041960;28;20416;-72
2021/05/07 06:43:00;;;;;;;3.58;0.88;;;;;;;6.14;91.93;94855.28;5039782;28;20051;-70
2021/05/07 06:45:26;;;;;;;1.52;0.88;;;;;;;6.31;91.19;94858.47;5047633;28;20660;-72
2021/05/07 06:47:51;;;;;;;0.85;0.70;;;;;;;6.41;90.21;94861.09;5046654;28;20041;-71
2021/05/07 06:50:18;;;;;;;1.00;0.90;;;;;;;6.38;90.82;94853.78;5033761;28;20107;-72
2021/05/07 06:52:44;;;;;;;0.47;0.47;;;;;;;6.35;89.54;94838.63;5046348;28;20048;-71
2021/05/07 06:55:11;;;;;;;1.10;0.55;;;;;;;6.50;89.56;94844.91;5036922;28;20037;-71
2021/05/07 06:57:38;;;;;;;2.15;0.95;;;;;;;6.46;89.86;94838.63;5034645;28;20068;-71
2021/05/07 07:00:05;;;;;;;0.70;0.70;;;;;;;6.37;89.95;94831.28;5035774;28;20556;-71
2021/05/07 07:02:31;;;;;;;2.43;0.80;;;;;;;6.41;89.75;94836.81;5038756;28;20041;-68
2021/05/07 07:04:57;;;;;;;1.10;0.73;;;;;;;6.80;88.87;94838.94;5034184;28;20041;-78
2021/05/07 07:07:25;;;;;;;2.10;0.70;;;;;;;6.83;89.66;94835.00;5045755;28;20041;-71
2021/05/07 07:09:51;;;;;;;0.80;0.80;;;;;;;7.04;89.11;94831.34;5044462;28;20033;-69
2021/05/07 07:12:16;;;;;;;2.08;1.10;;;;;;;7.17;88.49;94837.06;5053052;28;20119;-70
2021/05/07 07:14:42;;;;;;;1.30;0.85;;;;;;;7.20;88.67;94836.56;5045040;28;20379;-70
2021/05/07 07:17:08;;;;;;;1.02;0.90;;;;;;;7.38;89.16;94841.22;5037786;28;20064;-69
2021/05/07 07:19:34;;;;;;;1.50;1.10;;;;;;;7.46;84.93;94840.69;5032573;28;20037;-70
2021/05/07 07:22:01;;;;;;;1.48;1.13;;;;;;;7.52;88.52;94833.59;5037252;28;20045;-70
2021/05/07 07:24:27;;;;;;;1.77;1.10;;;;;;;7.48;89.35;94831.78;5036471;28;20037;-70
2021/05/07 07:26:53;;;;;;;0.82;0.75;;;;;;;7.56;86.72;94833.88;5041848;28;20096;-70
2021/05/07 07:29:19;;;;;;;1.15;1.00;;;;;;;7.37;88.26;94847.53;5039021;28;20147;-70
2021/05/07 07:31:44;;;;;;;1.98;1.10;;;;;;;7.42;86.39;94839.66;5040820;28;20049;-70
2021/05/07 07:34:10;;;;;;;1.30;1.10;;;;;;;7.60;88.07;94834.88;5045559;28;20054;-70
2021/05/07 07:36:36;;;;;;;1.52;0.93;;;;;;;7.63;86.62;94834.38;5046213;28;20046;-70
2021/05/07 07:39:02;;;;;;;2.72;1.02;;;;;;;7.41;88.83;94832.88;5044868;28;20136;-70
2021/05/07 07:41:28;;;;;;;1.63;1.00;;;;;;;7.39;86.20;94829.72;5035593;28;20552;-70
2021/05/07 07:43:53;;;;;;;2.25;1.30;;;;;;;7.52;85.48;94827.59;5036777;28;20050;-71
2021/05/07 07:46:19;;;;;;;3.28;1.40;;;;;;;7.62;89.07;94828.34;5057345;28;20414;-70
2021/05/07 07:48:45;;;;;;;7.32;1.60;;;;;;;7.58;89.27;94837.00;5040487;28;20398;-70
2021/05/07 07:51:10;;;;;;;4.00;1.60;;;;;;;7.55;90.66;94832.28;5038527;28;20053;-71
2021/05/07 07:53:36;;;;;;;4.95;1.60;;;;;;;7.46;87.95;94824.97;5047532;28;20055;-71
2021/05/07 07:56:02;;;;;;;7.00;2.17;;;;;;;7.35;90.03;94831.28;5045641;28;20073;-71
2021/05/07 07:58:28;;;;;;;7.13;1.83;;;;;;;7.38;90.30;94828.13;5036219;28;20076;-70
2021/05/07 08:00:54;;;;;;;5.70;1.70;;;;;;;7.36;89.79;94835.47;5047499;28;20415;-70
2021/05/07 08:03:20;;;;;;;6.13;1.85;;;;;;;7.24;90.23;94827.13;5042351;28;20052;-71
2021/05/07 08:05:46;;;;;;;6.63;1.98;;;;;;;7.04;92.69;94848.84;5042928;28;20044;-70
2021/05/07 08:08:12;;;;;;;4.15;1.77;;;;;;;7.02;91.79;94856.97;5039579;28;20041;-71
2021/05/07 08:10:37;;;;;;;5.18;1.70;;;;;;;7.13;91.90;94830.81;5046061;28;20045;-70
2021/05/07 08:13:03;;;;;;;9.93;2.20;;;;;;;7.01;92.38;94865.88;5050203;28;20056;-71
2021/05/07 08:15:28;;;;;;;6.47;1.90;;;;;;;6.52;91.49;94876.81;5049550;28;20049;-70
2021/05/07 08:17:54;;;;;;;5.28;2.00;;;;;;;6.37;92.58;94886.19;5040596;28;20044;-71
2021/05/07 08:20:21;;;;;;;4.97;1.88;;;;;;;6.40;92.01;94898.72;5047317;28;20037;-71
2021/05/07 08:22:47;;;;;;;3.63;1.90;;;;;;;5.97;91.98;94905.91;5050845;28;20066;-70
2021/05/07 08:25:14;;;;;;;1.90;1.27;;;;;;;5.46;89.21;94918.63;5042717;28;20040;-71
2021/05/07 08:27:41;;;;;;;2.30;1.50;;;;;;;5.18;91.08;94925.75;5043175;28;20068;-72
2021/05/07 08:30:08;;;;;;;3.03;1.40;;;;;;;5.16;91.17;94938.25;5043944;28;20075;-71
2021/05/07 08:32:34;;;;;;;0.95;0.82;;;;;;;5.23;90.21;94959.72;5045867;28;20161;-69
2021/05/07 08:35:00;;;;;;;1.75;1.17;;;;;;;5.22;90.42;94968.56;5042126;28;20502;-69
2021/05/07 08:37:26;;;;;;;1.27;1.00;;;;;;;5.12;91.10;94974.47;5047151;28;20103;-70
2021/05/07 08:39:52;;;;;;;1.27;1.08;;;;;;;4.99;89.72;94993.91;5032227;28;20038;-70
2021/05/07 08:42:20;;;;;;;1.02;0.93;;;;;;;4.96;90.97;95001.47;5046932;28;20044;-70
2021/05/07 08:44:50;;;;;;;1.30;1.15;;;;;;;5.02;90.10;94990.81;5046523;28;20053;-69
2021/05/07 08:47:28;;;;;;;1.13;0.93;;;;;;;5.10;90.83;94987.00;5044942;28;20056;-69
2021/05/07 08:49:55;;;;;;;1.05;0.88;;;;;;;4.77;90.18;94987.94;5043977;28;20045;-69
2021/05/07 08:52:21;;;;;;;1.88;0.75;;;;;;;4.62;90.98;94999.78;5045100;28;20045;-69
2021/05/07 08:54:46;;;;;;;1.23;1.10;;;;;;;4.57;91.29;95007.56;5043884;28;20525;-69
2021/05/07 08:57:13;;;;;;;1.42;0.95;;;;;;;4.58;90.80;95005.72;5047343;28;20045;-69
2021/05/07 08:59:39;;;;;;;1.40;1.05;;;;;;;4.61;90.92;95016.47;5043507;28;20053;-69
2021/05/07 09:02:04;;;;;;;3.58;1.08;;;;;;;4.47;92.45;95025.69;5044966;28;20051;-69
2021/05/07 09:04:31;;;;;;;2.88;0.90;;;;;;;4.32;92.09;95021.88;5042610;28;20546;-69
2021/05/07 09:06:56;;;;;;;1.52;0.90;;;;;;;4.30;90.30;95028.34;5046363;28;20037;-69
2021/05/07 09:09:30;;;;;;;0.98;0.77;;;;;;;4.47;90.99;95025.69;5043555;28;20491;-69
2021/05/07 09:11:58;;;;;;;0.63;0.63;;;;;;;4.58;90.00;95016.94;5049684;28;20041;-69
2021/05/07 09:14:26;;;;;;;0.50;0.50;;;;;;;4.93;89.52;95028.81;5047832;28;20469;-69
2021/05/07 09:16:58;;;;;;;1.85;0.88;;;;;;;5.24;89.77;95034.31;5039413;28;20053;-69
2021/05/07 09:19:27;;;;;;;1.95;1.00;;;;;;;5.39;89.89;95044.13;5040594;28;20038;-69
2021/05/07 09:21:54;;;;;;;1.42;1.20;;;;;;;5.19;90.51;95049.94;5043211;28;20057;-69
2021/05/07 09:24:38;;;;;;;2.22;1.15;;;;;;;5.67;91.19;95053.47;5047885;28;20110;-70
2021/05/07 09:27:05;;;;;;;1.53;1.20;;;;;;;5.83;91.55;95050.97;5039503;28;20124;-69
2021/05/07 09:29:32;;;;;;;2.55;1.27;;;;;;;6.12;88.73;95075.00;5036524;28;20049;-69
2021/05/07 09:32:03;;;;;;;2.05;1.50;;;;;;;6.06;89.18;95076.78;5036589;28;20061;-69
2021/05/07 09:34:37;;;;;;;1.98;1.38;;;;;;;5.92;88.99;95075.63;5050307;28;20041;-69
2021/05/07 09:37:17;;;;;;;1.80;1.00;;;;;;;5.88;88.04;95084.97;5048544;28;20565;-69
2021/05/07 09:39:43;;;;;;;1.65;1.00;;;;;;;5.81;89.13;95085.19;5052997;28;20044;-69
2021/05/07 09:42:09;;;;;;;1.98;1.10;;;;;;;5.82;87.75;95086.75;5049101;28;20118;-69
2021/05/07 09:44:35;;;;;;;1.65;1.30;;;;;;;6.07;86.84;95094.03;5043930;28;20068;-69
2021/05/07 09:47:13;;;;;;;1.92;1.40;;;;;;;6.38;83.79;95094.22;5044371;28;20057;-70
2021/05/07 09:49:39;;;;;;;1.27;0.90;;;;;;;6.17;84.75;95105.59;5049637;28;20037;-69
2021/05/07 09:52:04;;;;;;;2.15;1.30;;;;;;;6.05;87.96;95106.56;5043920;28;20075;-70
2021/05/07 09:54:30;;;;;;;0.90;0.90;;;;;;;6.16;87.59;95109.22;5044313;28;20041;-70
2021/05/07 09:56:57;;;;;;;1.40;1.30;;;;;;;6.31;86.39;95109.34;5047381;28;20075;-70
2021/05/07 09:59:23;;;;;;;2.97;1.45;;;;;;;6.25;90.63;95133.88;5051324;28;20052;-69
2021/05/07 10:01:49;;;;;;;3.70;1.20;;;;;;;6.13;87.36;95138.47;5047799;28;20498;-69
2021/05/07 10:04:16;;;;;;;1.35;1.00;;;;;;;5.94;86.72;95151.88;5051107;28;20045;-69
2021/05/07 10:06:42;;;;;;;1.60;1.10;;;;;;;6.14;88.19;95161.75;5048876;28;20491;-69
2021/05/07 10:09:09;;;;;;;1.30;1.20;;;;;;;6.12;88.80;95157.78;5047884;28;20040;-69
2021/05/07 10:11:40;;;;;;;1.80;1.48;;;;;;;5.76;88.17;95160.88;5049819;28;20045;-69
2021/05/07 10:14:12;;;;;;;1.50;1.40;;;;;;;5.80;89.82;95166.38;5048953;28;20060;-69
2021/05/07 10:16:39;;;;;;;3.08;1.60;;;;;;;6.04;87.85;95167.66;5047712;28;20045;-70
2021/05/07 10:19:07;;;;;;;2.13;1.70;;;;;;;6.07;88.39;95172.38;5044486;28;20037;-69
2021/05/07 10:21:38;;;;;;;2.83;1.65;;;;;;;6.33;87.75;95180.44;5047741;28;20040;-69
2021/05/07 10:24:13;;;;;;;2.08;1.70;;;;;;;6.56;86.94;95170.66;5048112;28;20565;-69
2021/05/07 10:26:42;;;;;;;2.42;1.60;;;;;;;6.22;85.29;95181.38;5046136;28;20580;-69
2021/05/07 10:29:18;;;;;;;2.78;1.60;;;;;;;6.14;86.68;95176.63;5048409;28;20048;-69
2021/05/07 10:31:46;;;;;;;2.47;1.70;;;;;;;6.11;86.58;95187.59;5043971;28;20044;-69
2021/05/07 10:34:11;;;;;;;2.38;1.80;;;;;;;6.36;87.34;95177.31;5048790;28;20190;-69
2021/05/07 10:36:38;;;;;;;1.95;1.50;;;;;;;6.46;85.85;95189.69;5047285;28;20461;-69
2021/05/07 10:39:14;;;;;;;2.70;1.80;;;;;;;6.32;83.87;95184.09;5046811;28;20045;-69
2021/05/07 10:41:40;;;;;;;1.83;1.50;;;;;;;6.46;84.90;95188.91;5048266;28;20047;-69
2021/05/07 10:44:05;;;;;;;1.70;1.40;;;;;;;5.93;84.92;95199.94;5042059;28;20038;-69
2021/05/07 10:46:31;;;;;;;2.00;1.50;;;;;;;6.05;85.83;95200.59;5037762;28;20048;-70
2021/05/07 10:48:59;;;;;;;3.67;1.75;;;;;;;6.24;86.95;95208.06;5047529;28;20045;-71
2021/05/07 10:51:25;;;;;;;1.98;1.70;;;;;;;6.64;85.00;95196.34;5036597;28;20053;-70
2021/05/07 10:53:52;;;;;;;1.63;1.48;;;;;;;6.38;85.07;95203.22;5037287;28;20049;-69
2021/05/07 10:56:18;;;;;;;1.58;1.48;;;;;;;7.10;85.54;95209.69;5045078;28;20041;-69
2021/05/07 10:58:44;;;;;;;3.83;2.05;;;;;;;7.28;82.01;95205.06;5055666;28;20115;-70
2021/05/07 11:01:18;;;;;;;4.35;1.90;;;;;;;7.18;81.89;95205.78;5050335;28;20037;-71
2021/05/07 11:03:44;;;;;;;3.65;1.80;;;;;;;7.15;79.50;95208.13;5083415;28;20319;-71
2021/05/07 11:06:10;;;;;;;3.90;2.30;;;;;;;6.94;82.61;95215.91;5034817;28;20444;-69
2021/05/07 11:08:36;;;;;;;2.25;1.80;;;;;;;7.15;82.55;95221.22;5044535;28;20036;-70
2021/05/07 11:11:02;;;;;;;2.67;1.70;;;;;;;7.51;80.12;95229.22;5045805;28;20407;-69
2021/05/07 11:13:28;;;;;;;2.55;2.03;;;;;;;7.55;78.96;95230.31;5057767;28;20049;-70
2021/05/07 11:16:01;;;;;;;2.35;1.92;;;;;;;7.87;81.02;95231.97;5047100;28;20057;-70
2021/05/07 11:18:32;;;;;;;2.72;1.90;;;;;;;7.85;78.94;95234.06;5045580;28;20044;-69
2021/05/07 11:20:58;;;;;;;3.58;2.50;;;;;;;7.91;80.03;95222.53;5059085;28;20163;-70
2021/05/07 11:23:30;;;;;;;3.28;2.30;;;;;;;7.66;80.72;95237.16;5047694;28;20102;-71
2021/05/07 11:25:56;;;;;;;3.83;2.70;;;;;;;7.05;79.19;95248.94;5036093;28;20540;-71
2021/05/07 11:28:22;;;;;;;4.00;2.67;;;;;;;7.02;82.01;95253.84;5040869;28;20033;-70
2021/05/07 11:30:50;;;;;;;4.25;2.78;;;;;;;7.01;79.31;95252.28;5040834;28;20044;-70
2021/05/07 11:33:17;;;;;;;3.65;2.50;;;;;;;7.15;77.83;95252.63;5050377;28;20045;-69
2021/05/07 11:35:43;;;;;;;4.90;3.03;;;;;;;7.03;79.28;95260.69;5047612;28;20044;-70
2021/05/07 11:38:08;;;;;;;4.57;3.08;;;;;;;7.16;80.96;95269.91;5045757;28;20047;-70
2021/05/07 11:40:39;;;;;;;4.43;3.28;;;;;;;7.05;78.26;95269.84;5050712;28;20056;-70